ADDS METAR Data INFO
IDs: Format: Raw Decoded Include TAF

Data at: 2040 UTC 16 Dec 2017

KDLP 162035Z AUTO 06009G16KT 7SM BKN030 OVC036 16/15 A3017 RMK A01
KDLP 162015Z AUTO 05011KT 9SM BKN028 OVC036 15/14 A3018 RMK A01
KDLP 161955Z AUTO 06012G18KT 9SM BKN036 OVC041 16/14 A3017 RMK A01
KDLP 161935Z AUTO 07015KT 9SM SCT025 OVC041 16/13 A3017 RMK A01
KDLP 161915Z AUTO 07015KT 8SM SCT025 OVC042 16/13 A3018 RMK A01
KDLP 161855Z AUTO 07015KT 8SM FEW023 FEW035 OVC042 16/13 A3018 RMK A01
KDLP 161835Z AUTO 07015KT 8SM BKN035 OVC041 16/12 A3019 RMK A01
KDLP 161815Z AUTO 06014G19KT 9SM BKN037 BKN047 16/12 A3020 RMK A01
KDLP 161755Z AUTO 06012G21KT 9SM BKN038 BKN046 16/12 A3021 RMK A01
KDLP 161735Z AUTO 06015KT 9SM FEW048 15/11 A3022 RMK A01
KDLP 161715Z AUTO 07015G23KT 8SM SCT048 15/11 A3023 RMK A01
KDLP 161655Z AUTO 06013G21KT 9SM OVC047 15/11 A3024 RMK A01
KDLP 161635Z AUTO 06013G23KT 9SM OVC047 14/10 A3024 RMK A01
KDLP 161615Z AUTO 06016KT 9SM OVC045 14/10 A3024 RMK A01
KDLP 161555Z AUTO 06010G19KT 9SM OVC044 13/10 A3025 RMK A01
KDLP 161535Z AUTO 06012G20KT 10SM OVC041 13/10 A3025 RMK A01
KDLP 161515Z AUTO 05014G20KT 030V090 10SM SCT027 OVC040 13/10 A3025 RMK A01
KDLP 161455Z AUTO 05013G18KT 9SM OVC027 13/10 A3025 RMK A01
KDLP 161435Z AUTO 06011G18KT 050V110 9SM OVC028 13/10 A3025 RMK A01
KDLP 161415Z AUTO 06014G19KT 10SM OVC029 12/10 A3025 RMK A01
KDLP 161355Z AUTO 05014G20KT 10SM OVC029 12/10 A3024 RMK A01
KDLP 161335Z AUTO 05014G20KT 10SM BKN031 OVC043 12/09 A3024 RMK A01
KDLP 161315Z AUTO 05014G22KT 10SM OVC030 12/09 A3023 RMK A01
KDLP 161255Z AUTO 05014G21KT 030V120 10SM OVC030 12/09 A3023 RMK A01
KDLP 161235Z AUTO 06011G20KT 10SM OVC030 12/08 A3022 RMK A01
KDLP 161215Z AUTO 05016KT 10SM OVC030 12/08 A3022 RMK A01
KDLP 161155Z AUTO 06014G20KT 10SM OVC028 12/08 A3021 RMK A01
KDLP 161135Z AUTO 05013G20KT 10SM OVC028 12/08 A3021 RMK A01
KDLP 161115Z AUTO 05015G22KT 10SM BKN030 OVC034 11/08 A3020 RMK A01
KDLP 161055Z AUTO 04013G21KT 10SM OVC033 11/08 A3019 RMK A01
KDLP 161035Z AUTO 05014G19KT 10SM OVC032 11/07 A3020 RMK A01
KDLP 161015Z AUTO 06014KT 10SM OVC033 11/07 A3020 RMK A01
KDLP 160955Z AUTO 05014KT 10SM OVC033 11/07 A3021 RMK A01
KDLP 160935Z AUTO 06012G19KT 020V090 10SM BKN035 OVC046 11/07 A3021 RMK A01
KDLP 160915Z AUTO 06012G20KT FEW037 OVC047 11/06 A3021 RMK A01
KDLP 160855Z AUTO 06013G18KT 10SM OVC047 11/06 A3021 RMK A01
KDLP 160835Z AUTO 06011G20KT 10SM OVC047 11/05 A3022 RMK A01
KDLP 160815Z AUTO 05014G21KT 030V090 10SM OVC048 10/05 A3022 RMK A01
KDLP 160755Z AUTO 05014G21KT 10SM OVC048 10/05 A3022 RMK A01
KDLP 160735Z AUTO 06015G21KT 10SM OVC050 11/05 A3022 RMK A01
KDLP 160715Z AUTO 05011G20KT 030V090 10SM OVC050 10/05 A3022 RMK A01
KDLP 160655Z AUTO 05013G19KT 10SM BKN050 OVC095 11/05 A3023 RMK A01
KDLP 160635Z AUTO 05013G20KT 10SM FEW055 OVC095 10/05 A3023 RMK A01
KDLP 160615Z AUTO 05014G20KT 10SM BKN095 10/05 A3024 RMK A01
KDLP 160555Z AUTO 04016G22KT 10SM CLR 10/05 A3023 RMK A01
KDLP 160535Z AUTO 04015G21KT 10SM SCT095 10/06 A3022 RMK A01
KDLP 160515Z AUTO 04014G21KT 030V090 10SM BKN095 10/05 A3023 RMK A01
KDLP 160455Z AUTO 04014G21KT 10SM BKN090 10/05 A3025 RMK A01
KDLP 160435Z AUTO 04014G22KT 10SM OVC090 10/06 A3023 RMK A01
KDLP 160415Z AUTO 04014G19KT 10SM OVC090 11/05 A3025 RMK A01
KDLP 160355Z AUTO 03016KT 10SM OVC090 11/06 A3025 RMK A01
KDLP 160335Z AUTO 04014G19KT 10SM OVC090 10/05 A3023 RMK A01
KDLP 160315Z AUTO 04015KT 10SM OVC090 11/05 A3023 RMK A01
KDLP 160255Z AUTO 03016KT 10SM OVC095 11/05 A3022 RMK A01
KDLP 160235Z AUTO 02018KT 10SM OVC095 11/06 A3022 RMK A01
KDLP 160215Z AUTO 04016G22KT 10SM OVC090 11/06 A3022 RMK A01
KDLP 160155Z AUTO 03017KT 10SM OVC090 10/05 A3020 RMK A01
KDLP 160135Z AUTO 03018KT 10SM OVC090 11/06 A3019 RMK A01
KDLP 160115Z AUTO 03018KT 10SM OVC090 10/06 A3020 RMK A01
KDLP 160055Z AUTO 03018KT 10SM FEW080 OVC090 11/06 A3019 RMK A01
KDLP 160035Z AUTO 02016KT 10SM BKN080 OVC090 11/06 A3021 RMK A01
KDLP 160015Z AUTO 04014KT 10SM OVC080 11/06 A3018 RMK A01
KDLP 152355Z AUTO 05014G20KT 10SM OVC080 11/06 A3018 RMK A01
KDLP 152335Z AUTO 03018KT 10SM OVC080 10/06 A3018 RMK A01
KDLP 152315Z AUTO 03016KT 10SM OVC080 11/06 A3017 RMK A01
KDLP 152255Z AUTO 02019KT 10SM OVC080 11/07 A3019 RMK A01
KDLP 152235Z AUTO 02020KT 10SM BKN075 11/07 A3017 RMK A01
KDLP 152215Z AUTO 02019KT 10SM BKN070 11/07 A3016 RMK A01
KDLP 152155Z AUTO 03017KT 10SM OVC070 11/07 A3017 RMK A01
KDLP 152135Z AUTO 02018KT 10SM BKN065 BKN075 11/07 A3016 RMK A01
KDLP 152115Z AUTO 04012G24KT 010V070 10SM BKN070 BKN080 11/06 A3015 RMK A01
KDLP 152055Z AUTO 04015G22KT 7SM FEW080 10/07 A3015 RMK A01
KDLP 152035Z AUTO 03017G23KT 5SM HZ FEW050 10/07 A3016 RMK A01
KDLP 152015Z AUTO 03017G23KT 5SM HZ FEW045 BKN050 BKN065 10/06 A3016 RMK A01
KDLP 151955Z AUTO 03017G23KT 10SM SCT049 BKN060 11/06 A3016 RMK A01
KDLP 151935Z AUTO 03019KT 9SM FEW046 BKN055 BKN065 11/07 A3015 RMK A01
KDLP 151915Z AUTO 03020KT 10SM SCT055 SCT070 11/07 A3014 RMK A01
KDLP 151855Z AUTO 02023KT 7SM CLR 10/08 A3015 RMK A01
KDLP 151835Z AUTO 02024KT 6SM BR CLR 10/08 A3015 RMK A01
KDLP 151815Z AUTO 02023KT 4SM HZ SCT065 10/08 A3018 RMK A01
KDLP 151755Z AUTO 02024KT 8SM OVC060 11/08 A3019 RMK A01
KDLP 151735Z AUTO 02022KT 10SM OVC060 11/07 A3018 RMK A01
KDLP 151715Z AUTO 02022KT 9SM OVC060 11/08 A3018 RMK A01
KDLP 151655Z AUTO 03022KT 9SM OVC060 11/09 A3018 RMK A01
KDLP 151635Z AUTO 02022KT 10SM BKN060 11/09 A3018 RMK A01
KDLP 151615Z AUTO 02021KT 9SM FEW048 BKN055 11/10 A3018 RMK A01
KDLP 151555Z AUTO 01020KT 6SM BR SCT029 BKN049 BKN055 11/10 A3018 RMK A01
KDLP 151535Z AUTO 01021KT 6SM BR OVC029 12/10 A3019 RMK A01
KDLP 151515Z AUTO 02020KT 6SM HZ OVC028 12/10 A3018 RMK A01
KDLP 151455Z AUTO 02017KT 7SM SCT027 BKN044 BKN050 12/09 A3016 RMK A01
KDLP 151435Z AUTO 02016KT 9SM FEW029 FEW042 SCT050 12/10 A3014 RMK A01
KDLP 151415Z AUTO 02018KT 5SM BR FEW042 BKN050 BKN070 12/10 A3012 RMK A01
KDLP 151355Z AUTO 02018KT 6SM BR FEW050 SCT070 12/10 A3011 RMK A01
KDLP 151335Z AUTO 02017KT 5SM HZ FEW050 FEW065 FEW095 13/10 A3010 RMK A01
KDLP 151315Z AUTO 02015KT 6SM HZ FEW044 SCT055 BKN095 13/10 A3009 RMK A01
KDLP 151255Z AUTO 02016KT 9SM BKN050 OVC065 13/10 A3007 RMK A01
KDLP 151235Z AUTO 02016KT 6SM BR OVC060 13/12 A3006 RMK A01
KDLP 151215Z AUTO 02014KT 5SM BR FEW042 SCT047 OVC060 13/13 A3006 RMK A01
KDLP 151155Z AUTO 01017KT 6SM BR OVC047 13/12 A3005 RMK A01
KDLP 151135Z AUTO 01017KT 8SM BKN048 OVC060 14/11 A3005 RMK A01
KDLP 151115Z AUTO 01013KT 10SM FEW050 SCT060 OVC090 14/11 A3004 RMK A01
KDLP 151055Z AUTO 01016KT 10SM FEW038 BKN090 OVC100 14/11 A3003 RMK A01
KDLP 151035Z AUTO 02015KT 10SM FEW042 BKN048 OVC110 15/11 A3003 RMK A01
KDLP 151015Z AUTO 01014KT 10SM OVC047 15/11 A3004 RMK A01
KDLP 150955Z AUTO 03013KT 10SM OVC046 15/11 A3002 RMK A01
KDLP 150935Z AUTO 02014KT 10SM BKN045 BKN055 OVC065 16/12 A3002 RMK A01
KDLP 150915Z AUTO 35004KT 10SM BKN046 BKN055 OVC065 19/04 A3002 RMK A01
KDLP 150855Z AUTO 34004KT 10SM BKN046 OVC050 18/08 A3002 RMK A01